Norwegian Sun — C6RN3 — position and weather

sailwx.info

Track history (hours):
 
Tides and Currents Weather Stations Pressure Air Temp Water Temp Dewpoint Dewpoint Depression Visibility Wind Speed Wind Dir Waves Ship Positions

Norwegian Sun

Operator: Norwegian Cruise Line

Last reported at 2018-Dec-12 13:28 UTC. Time now 2018-Dec-12 14:07 UTC.
Position N 09°16' W 079°55'.

Type: Passenger vessel. MMSI: 311109000.

Date/timePositionNaut miles runAvg speedWind from/ knotsBaromVisibWave heightAir tempDewpointWater temp
2018-Dec-12 13:28N 09°16' W 079°55'0 0.4
2018-Dec-12 13:00N 09°17' W 079°55'0 0.4
2018-Dec-12 12:30N 09°17' W 079°55'0 0.3
2018-Dec-12 12:00N 09°17' W 079°55'2 3.3
2018-Dec-12 11:30N 09°19' W 079°55'3 5.5
2018-Dec-12 11:00N 09°21' W 079°55'4 7.6
2018-Dec-12 10:30N 09°25' W 079°55'510.4
2018-Dec-12 10:00N 09°30' W 079°54'816.4
2018-Dec-12 09:30N 09°38' W 079°51'714.7
2018-Dec-12 09:00N 09°43' W 079°46'  
2018-Dec-09 19:00N 15°54' W 074°36'13218.9 120 / 301012.010.8 26.021.523.0
2018-Dec-09 12:00N 18°06' W 074°42'21812.8 130 / 101015.010.8 27.022.629.0
2018-Dec-08 19:00N 21°24' W 076°18'15018.7 110 / 231016.010.8 27.021.023.0
2018-Dec-08 11:00N 22°42' W 078°36'5317.8 090 / 241018.0 25.022.028.0
2018-Dec-08 08:00N 23°24' W 079°12'11620.9 090 / 201019.010.8 24.021.022.0
2018-Dec-08 02:28N 25°14' W 079°52'715.5
2018-Dec-08 02:00N 25°21' W 079°55'715.2
2018-Dec-08 01:30N 25°28' W 079°57'714.9
2018-Dec-08 01:00N 25°35' W 080°00'714.6
2018-Dec-08 00:30N 25°41' W 080°03'510.1
2018-Dec-08 00:00N 25°46' W 080°06'4 8.2
2018-Dec-07 23:30N 25°47' W 080°11'0 0.1
2018-Dec-07 23:00N 25°47' W 080°11'0 0.0
2018-Dec-07 22:30N 25°47' W 080°11'0 0.0
2018-Dec-07 22:00N 25°47' W 080°11'0 0.0
2018-Dec-07 21:30N 25°47' W 080°11'0 0.0
2018-Dec-07 21:00N 25°47' W 080°11'0 0.0
2018-Dec-07 20:30N 25°47' W 080°11'0 0.0
2018-Dec-07 20:00N 25°47' W 080°11'0 0.0
2018-Dec-07 19:30N 25°47' W 080°11'0 0.0
2018-Dec-07 19:00N 25°47' W 080°11'0 0.0
2018-Dec-07 18:30N 25°47' W 080°11'0 0.0
2018-Dec-07 18:00N 25°47' W 080°11'0 0.0
2018-Dec-07 17:21N 25°47' W 080°11'0 0.0
2018-Dec-07 17:00N 25°47' W 080°11'0 0.0
2018-Dec-07 16:30N 25°47' W 080°11'0 0.0
2018-Dec-07 15:57N 25°47' W 080°11'0 0.0
2018-Dec-07 15:30N 25°47' W 080°11'0 0.0
2018-Dec-07 15:00N 25°47' W 080°11'0 0.0
2018-Dec-07 14:24N 25°47' W 080°11'0 0.0
2018-Dec-07 13:54N 25°47' W 080°11'0 0.0
2018-Dec-07 13:24N 25°47' W 080°11'0 0.0
2018-Dec-07 12:54N 25°47' W 080°11'0 0.0
2018-Dec-07 12:27N 25°47' W 080°11'0 0.0
2018-Dec-07 11:57N 25°47' W 080°11'0 0.0
2018-Dec-07 11:30N 25°47' W 080°11'0 0.0
2018-Dec-07 11:00N 25°47' W 080°11'0 0.0
2018-Dec-07 10:27N 25°47' W 080°11'0 0.0
2018-Dec-07 10:00N 25°47' W 080°11'2 3.7
2018-Dec-07 09:30N 25°46' W 080°09'612.2
2018-Dec-07 09:00N 25°47' W 080°02'4 8.1
2018-Dec-07 08:31N 25°44' W 079°59'918.4
2018-Dec-07 08:01N 25°35' W 079°56'1020.6
2018-Dec-07 07:30N 25°25' W 079°55'1220.8
2018-Dec-07 06:54N 25°13' W 079°58'344 9.6
2018-Dec-05 19:00N 21°48' W 085°00'22711.9 050 / 321016.010.8 28.022.124.0
2018-Dec-05 00:00N 19°30' W 081°48'37810.8 050 / 181014.0 5.4 27.022.630.0
2018-Dec-03 13:00N 13°12' W 082°00'8116.3 090 / 341010.010.8 27.022.629.0
2018-Dec-03 08:00N 11°54' W 082°24'   090 / 251009.010.8 27.022.624.0
Track history (hours):
 
Tides and Currents Weather Stations Pressure Air Temp Water Temp Dewpoint Dewpoint Depression Visibility Wind Speed Wind Dir Waves Ship Positions

Norwegian Sun

Operator: Norwegian Cruise Line

Last reported at 2018-Dec-12 13:28 UTC. Time now 2018-Dec-12 14:07 UTC.
Position N 09°16' W 079°55'.

Type: Passenger vessel. MMSI: 311109000.

Date/timePositionNaut miles runAvg speedWind from/ knotsBaromVisibWave heightAir tempDewpointWater temp
2018-Dec-12 13:28N 09°16' W 079°55'0 0.4
2018-Dec-12 13:00N 09°17' W 079°55'0 0.4
2018-Dec-12 12:30N 09°17' W 079°55'0 0.3
2018-Dec-12 12:00N 09°17' W 079°55'2 3.3
2018-Dec-12 11:30N 09°19' W 079°55'3 5.5
2018-Dec-12 11:00N 09°21' W 079°55'4 7.6
2018-Dec-12 10:30N 09°25' W 079°55'510.4
2018-Dec-12 10:00N 09°30' W 079°54'816.4
2018-Dec-12 09:30N 09°38' W 079°51'714.7
2018-Dec-12 09:00N 09°43' W 079°46'  
2018-Dec-09 19:00N 15°54' W 074°36'13218.9 120 / 301012.010.8 26.021.523.0
2018-Dec-09 12:00N 18°06' W 074°42'21812.8 130 / 101015.010.8 27.022.629.0
2018-Dec-08 19:00N 21°24' W 076°18'15018.7 110 / 231016.010.8 27.021.023.0
2018-Dec-08 11:00N 22°42' W 078°36'5317.8 090 / 241018.0 25.022.028.0
2018-Dec-08 08:00N 23°24' W 079°12'11620.9 090 / 201019.010.8 24.021.022.0
2018-Dec-08 02:28N 25°14' W 079°52'715.5
2018-Dec-08 02:00N 25°21' W 079°55'715.2
2018-Dec-08 01:30N 25°28' W 079°57'714.9
2018-Dec-08 01:00N 25°35' W 080°00'714.6
2018-Dec-08 00:30N 25°41' W 080°03'510.1
2018-Dec-08 00:00N 25°46' W 080°06'4 8.2
2018-Dec-07 23:30N 25°47' W 080°11'0 0.1
2018-Dec-07 23:00N 25°47' W 080°11'0 0.0
2018-Dec-07 22:30N 25°47' W 080°11'0 0.0
2018-Dec-07 22:00N 25°47' W 080°11'0 0.0
2018-Dec-07 21:30N 25°47' W 080°11'0 0.0
2018-Dec-07 21:00N 25°47' W 080°11'0 0.0
2018-Dec-07 20:30N 25°47' W 080°11'0 0.0
2018-Dec-07 20:00N 25°47' W 080°11'0 0.0
2018-Dec-07 19:30N 25°47' W 080°11'0 0.0
2018-Dec-07 19:00N 25°47' W 080°11'0 0.0
2018-Dec-07 18:30N 25°47' W 080°11'0 0.0
2018-Dec-07 18:00N 25°47' W 080°11'0 0.0
2018-Dec-07 17:21N 25°47' W 080°11'0 0.0
2018-Dec-07 17:00N 25°47' W 080°11'0 0.0
2018-Dec-07 16:30N 25°47' W 080°11'0 0.0
2018-Dec-07 15:57N 25°47' W 080°11'0 0.0
2018-Dec-07 15:30N 25°47' W 080°11'0 0.0
2018-Dec-07 15:00N 25°47' W 080°11'0 0.0
2018-Dec-07 14:24N 25°47' W 080°11'0 0.0
2018-Dec-07 13:54N 25°47' W 080°11'0 0.0
2018-Dec-07 13:24N 25°47' W 080°11'0 0.0
2018-Dec-07 12:54N 25°47' W 080°11'0 0.0
2018-Dec-07 12:27N 25°47' W 080°11'0 0.0
2018-Dec-07 11:57N 25°47' W 080°11'0 0.0
2018-Dec-07 11:30N 25°47' W 080°11'0 0.0
2018-Dec-07 11:00N 25°47' W 080°11'0 0.0
2018-Dec-07 10:27N 25°47' W 080°11'0 0.0
2018-Dec-07 10:00N 25°47' W 080°11'2 3.7
2018-Dec-07 09:30N 25°46' W 080°09'612.2
2018-Dec-07 09:00N 25°47' W 080°02'4 8.1
2018-Dec-07 08:31N 25°44' W 079°59'918.4
2018-Dec-07 08:01N 25°35' W 079°56'1020.6
2018-Dec-07 07:30N 25°25' W 079°55'1220.8
2018-Dec-07 06:54N 25°13' W 079°58'344 9.6
2018-Dec-05 19:00N 21°48' W 085°00'22711.9 050 / 321016.010.8 28.022.124.0
2018-Dec-05 00:00N 19°30' W 081°48'37810.8 050 / 181014.0 5.4 27.022.630.0
2018-Dec-03 13:00N 13°12' W 082°00'8116.3 090 / 341010.010.8 27.022.629.0
2018-Dec-03 08:00N 11°54' W 082°24'   090 / 251009.010.8 27.022.624.0

Dump ship's entire track history